Time;durP1;ratioP1;P1;durP2;ratioP2;P2;SDS_P1;SDS_P2;PMS_P1;PMS_P2;Temp;Humidity;BMP_temperature;BMP_pressure;BME280_temperature;BME280_humidity;BME280_pressure;Samples;Min_cycle;Max_cycle;Signal;HPM_P1;HPM_P2
2023/07/19 00:01:51;;;;;;;7.60;2.20;;;;;;;;;;4991656;28;100998;-76
2023/07/19 00:04:18;;;;;;;5.03;1.95;;;;;;;;;;4992079;28;99845;-76
2023/07/19 00:06:45;;;;;;;10.77;1.98;;;;;;;;;;4994873;28;100945;-76
2023/07/19 00:09:11;;;;;;;3.80;2.10;;;;;;;;;;5011610;28;100572;-76
2023/07/19 00:11:37;;;;;;;4.45;3.08;;;;;;;;;;4991194;28;98655;-77
2023/07/19 00:14:05;;;;;;;5.30;2.97;;;;;;;;;;4993459;28;99199;-77
2023/07/19 00:16:33;;;;;;;4.68;2.65;;;;;;;;;;5004580;28;100476;-81
2023/07/19 00:19:00;;;;;;;6.78;2.53;;;;;;;;;;5002823;28;98559;-82
2023/07/19 00:21:45;;;;;;;3.35;2.00;;;;;;;;;;4993670;28;100061;-81
2023/07/19 00:24:12;;;;;;;4.18;1.52;;;;;;;;;;5000481;28;98722;-76
2023/07/19 00:26:39;;;;;;;4.85;1.77;;;;;;;;;;4977636;28;100214;-75
2023/07/19 00:29:05;;;;;;;5.43;2.15;;;;;;;;;;5011793;28;102740;-79
2023/07/19 00:31:31;;;;;;;4.30;2.00;;;;;;;;;;5011664;28;98580;-80
2023/07/19 00:33:58;;;;;;;4.68;3.10;;;;;;;;;;5030798;28;100218;-80
2023/07/19 00:36:24;;;;;;;4.20;2.88;;;;;;;;;;5031697;27;99412;-80
2023/07/19 00:38:51;;;;;;;4.60;2.08;;;;;;;;;;5032507;27;98636;-80
2023/07/19 00:41:20;;;;;;;5.22;2.03;;;;;;;;;;5007602;27;99144;-79
2023/07/19 00:43:47;;;;;;;7.23;2.30;;;;;;;;;;5002692;28;98584;-79
2023/07/19 00:46:14;;;;;;;7.50;2.25;;;;;;;;;;4998293;28;100407;-79
2023/07/19 00:48:43;;;;;;;7.13;2.20;;;;;;;;;;4992617;28;98989;-79
2023/07/19 00:51:16;;;;;;;7.57;2.27;;;;;;;;;;4999243;28;98745;-76
2023/07/19 00:53:44;;;;;;;6.55;1.98;;;;;;;;;;4992116;28;100603;-77
2023/07/19 00:56:11;;;;;;;3.35;2.17;;;;;;;;;;5001328;28;101030;-77
2023/07/19 00:58:38;;;;;;;6.85;2.30;;;;;;;;;;4999748;28;98528;-74
2023/07/19 01:01:05;;;;;;;3.15;2.00;;;;;;;;;;4997705;28;99511;-74
2023/07/19 01:03:32;;;;;;;6.40;2.28;;;;;;;;;;4998217;28;100479;-74
2023/07/19 01:05:58;;;;;;;4.75;2.15;;;;;;;;;;5000971;28;100891;-74
2023/07/19 01:08:25;;;;;;;4.18;1.95;;;;;;;;;;4991289;28;101041;-75
2023/07/19 01:10:53;;;;;;;3.65;2.13;;;;;;;;;;4996068;28;98082;-75
2023/07/19 01:13:19;;;;;;;6.95;2.40;;;;;;;;;;4997188;28;99581;-82
2023/07/19 01:15:47;;;;;;;3.80;2.08;;;;;;;;;;5009263;28;100533;-79
2023/07/19 01:18:14;;;;;;;3.53;2.05;;;;;;;;;;4977684;28;99238;-78
2023/07/19 01:20:41;;;;;;;13.13;2.35;;;;;;;;;;4991568;28;101492;-78
2023/07/19 01:23:07;;;;;;;3.30;2.20;;;;;;;;;;4990767;28;100463;-79
2023/07/19 01:25:34;;;;;;;6.18;1.88;;;;;;;;;;4995271;28;98555;-79
2023/07/19 01:28:01;;;;;;;7.97;1.92;;;;;;;;;;4993734;28;101033;-78
2023/07/19 01:30:27;;;;;;;5.75;1.95;;;;;;;;;;5007762;28;98473;-80
2023/07/19 01:32:54;;;;;;;2.88;1.98;;;;;;;;;;5004731;28;100396;-78
2023/07/19 01:35:24;;;;;;;2.28;2.00;;;;;;;;;;4993335;28;99831;-79
2023/07/19 01:37:50;;;;;;;4.03;1.55;;;;;;;;;;5010292;28;98581;-79
2023/07/19 01:40:17;;;;;;;6.10;1.80;;;;;;;;;;5009351;28;99374;-79
2023/07/19 01:42:44;;;;;;;5.15;2.10;;;;;;;;;;4992794;28;101527;-79
2023/07/19 01:45:12;;;;;;;5.22;1.88;;;;;;;;;;5002009;28;98607;-79
2023/07/19 01:47:38;;;;;;;10.02;2.28;;;;;;;;;;4995514;28;101043;-78
2023/07/19 01:50:05;;;;;;;4.85;1.90;;;;;;;;;;4991783;28;98608;-78
2023/07/19 01:52:31;;;;;;;5.03;2.03;;;;;;;;;;4990542;28;100192;-78
2023/07/19 01:54:58;;;;;;;4.22;1.63;;;;;;;;;;4992692;28;101031;-79
2023/07/19 01:57:24;;;;;;;6.90;2.55;;;;;;;;;;5004824;28;98748;-78
2023/07/19 01:59:51;;;;;;;3.88;2.00;;;;;;;;;;5000170;28;100247;-78
2023/07/19 02:02:18;;;;;;;5.05;2.30;;;;;;;;;;5005941;28;102866;-79
2023/07/19 02:04:45;;;;;;;9.57;2.22;;;;;;;;;;4995126;28;98570;-74
2023/07/19 02:07:12;;;;;;;8.15;2.50;;;;;;;;;;4991551;28;100889;-75
2023/07/19 02:09:39;;;;;;;6.13;2.08;;;;;;;;;;4998980;28;98533;-79
2023/07/19 02:12:06;;;;;;;5.45;2.55;;;;;;;;;;4995856;28;99939;-79
2023/07/19 02:14:32;;;;;;;5.55;2.15;;;;;;;;;;5004964;28;98821;-79
2023/07/19 02:17:00;;;;;;;7.13;2.47;;;;;;;;;;5004184;28;98848;-75
2023/07/19 02:19:26;;;;;;;3.78;2.10;;;;;;;;;;4997917;28;101765;-77
2023/07/19 02:21:53;;;;;;;8.27;2.35;;;;;;;;;;5003913;28;101610;-76
2023/07/19 02:24:19;;;;;;;9.32;2.70;;;;;;;;;;4998956;28;98150;-78
2023/07/19 02:26:46;;;;;;;3.28;1.98;;;;;;;;;;4998778;28;99711;-78
2023/07/19 02:29:12;;;;;;;5.93;2.20;;;;;;;;;;5004397;28;100943;-76
2023/07/19 02:31:39;;;;;;;5.10;1.67;;;;;;;;;;5010094;28;100498;-75
2023/07/19 02:34:09;;;;;;;5.40;1.98;;;;;;;;;;5010059;28;99693;-75
2023/07/19 02:36:40;;;;;;;7.60;2.25;;;;;;;;;;5009627;28;98643;-76
2023/07/19 02:39:07;;;;;;;3.72;2.15;;;;;;;;;;5006208;28;100958;-77
2023/07/19 02:41:33;;;;;;;6.05;2.38;;;;;;;;;;4993922;28;100582;-77
2023/07/19 02:44:00;;;;;;;5.85;2.30;;;;;;;;;;5009750;28;98756;-77
2023/07/19 02:46:26;;;;;;;5.68;2.30;;;;;;;;;;5006137;28;99138;-77
2023/07/19 02:48:53;;;;;;;4.15;1.90;;;;;;;;;;4989444;28;100211;-75
2023/07/19 02:51:24;;;;;;;5.82;2.97;;;;;;;;;;4993430;28;98525;-76
2023/07/19 02:53:50;;;;;;;3.95;2.38;;;;;;;;;;4989418;28;100873;-76
2023/07/19 02:56:17;;;;;;;4.35;2.60;;;;;;;;;;4989521;28;99423;-76
2023/07/19 02:58:44;;;;;;;4.07;2.58;;;;;;;;;;4990547;28;99948;-77
2023/07/19 03:01:14;;;;;;;4.57;2.58;;;;;;;;;;4988428;28;100727;-77
2023/07/19 03:03:41;;;;;;;3.63;2.80;;;;;;;;;;4990419;28;98584;-77
2023/07/19 03:06:10;;;;;;;7.32;2.85;;;;;;;;;;4990252;28;100408;-77
2023/07/19 03:08:37;;;;;;;8.68;2.95;;;;;;;;;;4993429;28;100925;-78
2023/07/19 03:11:04;;;;;;;7.20;2.85;;;;;;;;;;4992786;28;98578;-77
2023/07/19 03:13:30;;;;;;;5.03;2.63;;;;;;;;;;4999855;28;99367;-76
2023/07/19 03:15:57;;;;;;;7.30;3.22;;;;;;;;;;4997125;28;98538;-77
2023/07/19 03:18:23;;;;;;;7.75;3.33;;;;;;;;;;5010391;28;99308;-77
2023/07/19 03:20:57;;;;;;;6.07;2.60;;;;;;;;;;4995262;28;100550;-77
2023/07/19 03:23:24;;;;;;;6.88;2.60;;;;;;;;;;4993594;28;99065;-77
2023/07/19 03:25:51;;;;;;;9.63;3.08;;;;;;;;;;5001577;28;99871;-80
2023/07/19 03:28:17;;;;;;;6.10;3.17;;;;;;;;;;4992776;28;100459;-78
2023/07/19 03:30:45;;;;;;;10.30;2.75;;;;;;;;;;4993254;28;98580;-78
2023/07/19 03:33:27;;;;;;;7.38;2.88;;;;;;;;;;5007663;28;100933;-80
2023/07/19 03:35:54;;;;;;;9.80;3.22;;;;;;;;;;5002171;28;98695;-79
2023/07/19 03:38:21;;;;;;;4.65;2.58;;;;;;;;;;4999939;28;100497;-78
2023/07/19 03:40:47;;;;;;;11.95;3.17;;;;;;;;;;4993286;28;100634;-77
2023/07/19 03:43:14;;;;;;;6.85;3.10;;;;;;;;;;4994154;28;98572;-76
2023/07/19 03:45:40;;;;;;;11.70;3.80;;;;;;;;;;5008527;28;101277;-78
2023/07/19 03:48:06;;;;;;;5.90;2.95;;;;;;;;;;5004610;28;99726;-78
2023/07/19 03:50:33;;;;;;;6.30;3.60;;;;;;;;;;4995348;28;98660;-78
2023/07/19 03:53:01;;;;;;;5.82;3.33;;;;;;;;;;5007490;28;99806;-78
2023/07/19 03:55:32;;;;;;;8.93;3.88;;;;;;;;;;4999871;28;99389;-77
2023/07/19 03:57:59;;;;;;;11.50;3.30;;;;;;;;;;5005177;28;100239;-76
2023/07/19 04:00:27;;;;;;;7.55;3.38;;;;;;;;;;4992930;28;100631;-75
2023/07/19 04:02:53;;;;;;;10.18;3.80;;;;;;;;;;5007291;28;97820;-76
2023/07/19 04:05:19;;;;;;;10.45;3.47;;;;;;;;;;4992431;28;99446;-75
2023/07/19 04:07:46;;;;;;;6.75;3.80;;;;;;;;;;5003100;28;100064;-76
2023/07/19 04:10:12;;;;;;;8.02;3.78;;;;;;;;;;5010561;28;99275;-76
2023/07/19 04:12:39;;;;;;;5.38;3.08;;;;;;;;;;4999036;28;101060;-76
2023/07/19 04:15:05;;;;;;;10.00;3.58;;;;;;;;;;4993676;28;100964;-75
2023/07/19 04:17:32;;;;;;;5.93;3.40;;;;;;;;;;5001782;28;99011;-75
2023/07/19 04:19:59;;;;;;;4.85;3.40;;;;;;;;;;5009686;28;100523;-75
2023/07/19 04:22:25;;;;;;;6.10;3.15;;;;;;;;;;5011356;28;98505;-74
2023/07/19 04:24:54;;;;;;;7.07;3.42;;;;;;;;;;5005955;28;100292;-74
2023/07/19 04:27:21;;;;;;;9.93;3.63;;;;;;;;;;4994431;28;99894;-74
2023/07/19 04:29:48;;;;;;;11.70;3.42;;;;;;;;;;5007224;28;98563;-74
2023/07/19 04:32:15;;;;;;;6.97;3.35;;;;;;;;;;4994536;28;100758;-74
2023/07/19 04:34:41;;;;;;;10.20;3.80;;;;;;;;;;5011402;28;101324;-74
2023/07/19 04:37:09;;;;;;;11.43;3.63;;;;;;;;;;5012254;28;98573;-73
2023/07/19 04:39:35;;;;;;;7.43;3.85;;;;;;;;;;4998035;28;100630;-74
2023/07/19 04:42:03;;;;;;;10.50;4.07;;;;;;;;;;4997646;28;98542;-73
2023/07/19 04:44:30;;;;;;;8.95;3.88;;;;;;;;;;5012148;28;100385;-74
2023/07/19 04:46:56;;;;;;;6.75;3.72;;;;;;;;;;5019985;28;100538;-74
2023/07/19 04:49:23;;;;;;;7.78;3.50;;;;;;;;;;5029382;28;98457;-74
2023/07/19 04:51:49;;;;;;;8.68;3.40;;;;;;;;;;5011503;28;100347;-73
2023/07/19 04:54:16;;;;;;;18.35;4.47;;;;;;;;;;5002954;28;100581;-73
2023/07/19 04:56:42;;;;;;;10.32;3.35;;;;;;;;;;4995631;28;98874;-72
2023/07/19 04:59:09;;;;;;;6.32;3.03;;;;;;;;;;5001743;28;100461;-73
2023/07/19 05:01:36;;;;;;;7.75;3.38;;;;;;;;;;5001064;28;100672;-73
2023/07/19 05:04:02;;;;;;;7.15;3.70;;;;;;;;;;4997369;28;100213;-73
2023/07/19 05:06:29;;;;;;;10.82;3.90;;;;;;;;;;4991147;28;100980;-73
2023/07/19 05:08:55;;;;;;;10.13;3.70;;;;;;;;;;4990683;28;98582;-73
2023/07/19 05:11:25;;;;;;;12.27;3.60;;;;;;;;;;4992614;28;100384;-73
2023/07/19 05:13:51;;;;;;;9.40;3.92;;;;;;;;;;4994477;28;100918;-76
2023/07/19 05:16:18;;;;;;;8.10;3.42;;;;;;;;;;4997424;28;97818;-75
2023/07/19 05:18:45;;;;;;;6.13;3.60;;;;;;;;;;5005792;27;99577;-75
2023/07/19 05:21:11;;;;;;;8.27;3.60;;;;;;;;;;4989896;28;100572;-75
2023/07/19 05:23:37;;;;;;;9.77;4.40;;;;;;;;;;4995281;28;99299;-75
2023/07/19 05:26:04;;;;;;;9.52;4.28;;;;;;;;;;5004101;28;101245;-75
2023/07/19 05:28:31;;;;;;;8.32;3.80;;;;;;;;;;4993518;28;98592;-75
2023/07/19 05:31:04;;;;;;;12.73;4.30;;;;;;;;;;4993369;28;100381;-75
2023/07/19 05:33:34;;;;;;;8.35;3.85;;;;;;;;;;4994316;28;100510;-75
2023/07/19 05:36:01;;;;;;;8.57;4.07;;;;;;;;;;5005679;28;99435;-75
2023/07/19 05:38:29;;;;;;;9.73;3.88;;;;;;;;;;5007938;28;102838;-75
2023/07/19 05:41:02;;;;;;;9.32;3.63;;;;;;;;;;5006390;28;100303;-75
2023/07/19 05:43:29;;;;;;;6.10;3.88;;;;;;;;;;5006324;28;98810;-76
2023/07/19 05:46:06;;;;;;;7.22;4.05;;;;;;;;;;4992793;28;100627;-75
2023/07/19 05:48:33;;;;;;;10.27;4.18;;;;;;;;;;4992620;28;99301;-75
2023/07/19 05:51:00;;;;;;;8.60;4.60;;;;;;;;;;5004791;28;101398;-75
2023/07/19 05:53:26;;;;;;;11.05;4.30;;;;;;;;;;5001924;28;100581;-75
2023/07/19 05:55:53;;;;;;;11.90;4.47;;;;;;;;;;5005409;28;98516;-75
2023/07/19 05:58:19;;;;;;;10.07;4.35;;;;;;;;;;5010521;28;100230;-76
2023/07/19 06:00:47;;;;;;;7.90;4.25;;;;;;;;;;5001421;28;100933;-76
2023/07/19 06:03:16;;;;;;;15.32;4.78;;;;;;;;;;5004733;28;98884;-78
2023/07/19 06:05:43;;;;;;;11.45;4.40;;;;;;;;;;4994611;28;99785;-76
2023/07/19 06:08:10;;;;;;;6.55;3.72;;;;;;;;;;4989891;28;98617;-77
2023/07/19 06:10:50;;;;;;;11.43;4.55;;;;;;;;;;4990054;28;100823;-77
2023/07/19 06:13:16;;;;;;;12.80;4.43;;;;;;;;;;4995084;28;101634;-77
2023/07/19 06:15:42;;;;;;;8.15;3.88;;;;;;;;;;5007528;28;98557;-76
2023/07/19 06:18:09;;;;;;;11.02;4.25;;;;;;;;;;5009340;28;100367;-75
2023/07/19 06:20:36;;;;;;;9.45;3.63;;;;;;;;;;4997294;28;100796;-74
2023/07/19 06:23:05;;;;;;;9.02;3.60;;;;;;;;;;4990658;28;98516;-76
2023/07/19 06:25:31;;;;;;;7.85;3.40;;;;;;;;;;4990169;28;99498;-74
2023/07/19 06:28:02;;;;;;;12.68;4.18;;;;;;;;;;5003436;28;99362;-78
2023/07/19 06:30:30;;;;;;;8.38;3.00;;;;;;;;;;4995127;28;100273;-78
2023/07/19 06:32:56;;;;;;;6.85;3.85;;;;;;;;;;4998153;28;101266;-78
2023/07/19 06:35:23;;;;;;;7.03;2.70;;;;;;;;;;5001513;28;98685;-77
2023/07/19 06:37:50;;;;;;;9.50;3.40;;;;;;;;;;5006862;28;100137;-78
2023/07/19 06:40:16;;;;;;;12.93;3.35;;;;;;;;;;4991194;28;101086;-76
2023/07/19 06:42:43;;;;;;;9.02;3.28;;;;;;;;;;4999459;28;98509;-78
2023/07/19 06:45:09;;;;;;;8.43;2.92;;;;;;;;;;5001462;28;100335;-76
2023/07/19 06:47:36;;;;;;;8.40;2.80;;;;;;;;;;4994544;28;100633;-78
2023/07/19 06:50:02;;;;;;;8.23;2.63;;;;;;;;;;5004016;28;98540;-78
2023/07/19 06:52:29;;;;;;;7.55;2.20;;;;;;;;;;4999570;28;103813;-78
2023/07/19 06:54:56;;;;;;;12.32;2.42;;;;;;;;;;5002666;28;97792;-78
2023/07/19 06:57:22;;;;;;;7.68;2.53;;;;;;;;;;4990582;28;98674;-78
2023/07/19 06:59:51;;;;;;;12.13;3.08;;;;;;;;;;4997033;28;100003;-78
2023/07/19 07:02:18;;;;;;;8.48;3.08;;;;;;;;;;4998700;28;100157;-78
2023/07/19 07:04:45;;;;;;;5.95;2.70;;;;;;;;;;4995347;28;101053;-78
2023/07/19 07:07:15;;;;;;;10.25;3.30;;;;;;;;;;5008454;28;100984;-77
2023/07/19 07:09:42;;;;;;;4.60;2.55;;;;;;;;;;5000503;28;99064;-78
2023/07/19 07:12:09;;;;;;;12.07;3.35;;;;;;;;;;5007153;28;100329;-78
2023/07/19 07:14:36;;;;;;;7.57;2.08;;;;;;;;;;5003674;28;98566;-78
2023/07/19 07:17:03;;;;;;;6.53;2.25;;;;;;;;;;5003773;28;100329;-78
2023/07/19 07:19:29;;;;;;;5.85;2.10;;;;;;;;;;5005387;28;99726;-77
2023/07/19 07:21:56;;;;;;;13.02;1.95;;;;;;;;;;5002068;28;98843;-78
2023/07/19 07:24:24;;;;;;;8.07;2.28;;;;;;;;;;4991774;28;100691;-78
2023/07/19 07:26:50;;;;;;;6.93;2.50;;;;;;;;;;4989146;28;101481;-76
2023/07/19 07:29:22;;;;;;;11.57;2.50;;;;;;;;;;4991298;28;99257;-78
2023/07/19 07:31:49;;;;;;;7.32;2.47;;;;;;;;;;4991657;28;103626;-78
2023/07/19 07:34:16;;;;;;;8.48;2.20;;;;;;;;;;4997785;28;101273;-78
2023/07/19 07:36:44;;;;;;;5.03;1.88;;;;;;;;;;4997100;28;98601;-78
2023/07/19 07:39:11;;;;;;;9.82;2.15;;;;;;;;;;5000271;28;100446;-78
2023/07/19 07:41:37;;;;;;;7.97;1.98;;;;;;;;;;5008836;28;98595;-78
2023/07/19 07:44:04;;;;;;;9.60;2.30;;;;;;;;;;5009465;28;100452;-78
2023/07/19 07:46:30;;;;;;;4.57;2.00;;;;;;;;;;4994566;28;100781;-80
2023/07/19 07:48:59;;;;;;;2.90;1.70;;;;;;;;;;4989793;28;98550;-79
2023/07/19 07:51:29;;;;;;;8.63;2.00;;;;;;;;;;4988438;28;100166;-79
2023/07/19 07:53:55;;;;;;;6.63;1.90;;;;;;;;;;5011386;28;100033;-79
2023/07/19 07:56:23;;;;;;;6.70;2.00;;;;;;;;;;5012353;28;99182;-79
2023/07/19 07:58:49;;;;;;;11.45;1.88;;;;;;;;;;5004420;28;102390;-79
2023/07/19 08:01:15;;;;;;;6.22;2.22;;;;;;;;;;4992313;28;98581;-79
2023/07/19 08:03:42;;;;;;;8.40;2.20;;;;;;;;;;4992481;28;100380;-79
2023/07/19 08:06:08;;;;;;;11.45;2.60;;;;;;;;;;4992170;28;99420;-79
2023/07/19 08:08:35;;;;;;;9.43;2.50;;;;;;;;;;5000870;28;98094;-79
2023/07/19 08:11:09;;;;;;;7.53;2.80;;;;;;;;;;4998450;28;100442;-79
2023/07/19 08:13:35;;;;;;;8.82;2.55;;;;;;;;;;4998682;28;99949;-79
2023/07/19 08:16:06;;;;;;;5.88;2.83;;;;;;;;;;5006162;28;99275;-79
2023/07/19 08:18:34;;;;;;;9.68;2.40;;;;;;;;;;5030807;27;99394;-80
2023/07/19 08:21:00;;;;;;;5.97;2.47;;;;;;;;;;4998783;28;100157;-79
2023/07/19 08:23:27;;;;;;;10.68;2.80;;;;;;;;;;4999526;28;99616;-80
2023/07/19 08:25:57;;;;;;;8.63;2.92;;;;;;;;;;5011756;28;103062;-79
2023/07/19 08:28:26;;;;;;;6.32;2.53;;;;;;;;;;5006069;28;98620;-79
2023/07/19 08:30:52;;;;;;;9.90;3.10;;;;;;;;;;5007442;28;100237;-79
2023/07/19 08:33:23;;;;;;;9.93;3.55;;;;;;;;;;5010510;28;98942;-79
2023/07/19 08:35:50;;;;;;;5.70;2.40;;;;;;;;;;5005046;28;98603;-79
2023/07/19 08:38:17;;;;;;;12.52;3.00;;;;;;;;;;4995025;28;98940;-79
2023/07/19 08:40:50;;;;;;;8.82;3.05;;;;;;;;;;4989920;28;99296;-79
2023/07/19 08:43:16;;;;;;;12.25;3.00;;;;;;;;;;4998675;28;100098;-80
2023/07/19 08:45:43;;;;;;;10.65;3.10;;;;;;;;;;5004259;28;99605;-79
2023/07/19 08:48:09;;;;;;;7.45;2.67;;;;;;;;;;4995147;28;99044;-79
2023/07/19 08:50:36;;;;;;;13.25;2.95;;;;;;;;;;4991122;28;100221;-79
2023/07/19 08:53:02;;;;;;;5.32;2.47;;;;;;;;;;4990017;28;99454;-79
2023/07/19 08:55:31;;;;;;;16.67;3.05;;;;;;;;;;5006434;28;98917;-80
2023/07/19 08:57:57;;;;;;;11.65;2.83;;;;;;;;;;4992415;28;100296;-79
2023/07/19 09:00:24;;;;;;;10.40;3.10;;;;;;;;;;4993883;28;99612;-79
2023/07/19 09:02:50;;;;;;;6.50;2.75;;;;;;;;;;4997546;28;99112;-79
2023/07/19 09:05:17;;;;;;;8.80;2.47;;;;;;;;;;4989128;28;100732;-79
2023/07/19 09:07:45;;;;;;;14.02;2.92;;;;;;;;;;4990238;28;98948;-78
2023/07/19 09:10:12;;;;;;;8.90;2.63;;;;;;;;;;4988320;28;99250;-79
2023/07/19 09:12:39;;;;;;;16.08;3.20;;;;;;;;;;4991220;28;101577;-79
2023/07/19 09:15:07;;;;;;;21.05;3.17;;;;;;;;;;4991210;28;98566;-79
2023/07/19 09:17:40;;;;;;;5.30;2.08;;;;;;;;;;5010750;28;100878;-79
2023/07/19 09:20:07;;;;;;;9.40;2.00;;;;;;;;;;4990602;28;100451;-80
2023/07/19 09:22:34;;;;;;;5.93;2.20;;;;;;;;;;4993582;28;98063;-79
2023/07/19 09:25:01;;;;;;;7.40;2.20;;;;;;;;;;4989970;28;100678;-80
2023/07/19 09:27:28;;;;;;;8.32;2.20;;;;;;;;;;5003817;28;99594;-79
2023/07/19 09:29:54;;;;;;;7.85;2.38;;;;;;;;;;4991023;28;99432;-79
2023/07/19 09:32:22;;;;;;;16.67;2.60;;;;;;;;;;5010756;28;99209;-79
2023/07/19 09:34:52;;;;;;;9.15;2.53;;;;;;;;;;5010699;28;99589;-80
2023/07/19 09:37:20;;;;;;;6.88;2.30;;;;;;;;;;5007000;28;100409;-80
2023/07/19 09:39:46;;;;;;;10.13;2.20;;;;;;;;;;5009885;28;99963;-79
2023/07/19 09:42:13;;;;;;;8.50;2.28;;;;;;;;;;5010570;28;98515;-79
2023/07/19 09:44:40;;;;;;;16.40;2.72;;;;;;;;;;5009768;28;99150;-79
2023/07/19 09:47:10;;;;;;;7.60;2.25;;;;;;;;;;5021032;28;98082;-79
2023/07/19 09:49:54;;;;;;;9.55;2.65;;;;;;;;;;5009304;28;98578;-79
2023/07/19 09:52:24;;;;;;;10.82;2.28;;;;;;;;;;5010288;28;99993;-79
2023/07/19 09:54:50;;;;;;;7.50;3.25;;;;;;;;;;5007368;28;99542;-79
2023/07/19 09:57:17;;;;;;;10.30;2.72;;;;;;;;;;5001533;28;100014;-79
2023/07/19 09:59:48;;;;;;;6.20;2.50;;;;;;;;;;4993316;28;99564;-79
2023/07/19 10:02:14;;;;;;;11.68;2.70;;;;;;;;;;4988659;28;98721;-79
2023/07/19 10:04:42;;;;;;;6.50;2.38;;;;;;;;;;4993324;28;99121;-79
2023/07/19 10:07:09;;;;;;;7.70;2.47;;;;;;;;;;4989824;28;98595;-79
2023/07/19 10:09:37;;;;;;;15.00;3.15;;;;;;;;;;4997643;28;100370;-79
2023/07/19 10:12:15;;;;;;;7.70;2.45;;;;;;;;;;4993701;28;99554;-79
2023/07/19 10:14:55;;;;;;;12.50;2.55;;;;;;;;;;4991850;28;98988;-80
2023/07/19 10:17:22;;;;;;;9.55;2.42;;;;;;;;;;5003403;28;100380;-81
2023/07/19 10:20:03;;;;;;;9.35;2.85;;;;;;;;;;4989335;28;100155;-81
2023/07/19 10:22:48;;;;;;;5.45;2.22;;;;;;;;;;4990287;28;98961;-80
2023/07/19 10:25:19;;;;;;;9.00;2.70;;;;;;;;;;5005274;28;101562;-79
2023/07/19 10:27:54;;;;;;;9.93;2.85;;;;;;;;;;5008302;28;100360;-79
2023/07/19 10:30:20;;;;;;;7.35;2.67;;;;;;;;;;5003204;28;99378;-79
2023/07/19 10:32:50;;;;;;;14.95;2.90;;;;;;;;;;5003295;28;99500;-79
2023/07/19 10:35:17;;;;;;;;;;;;;;;;;;4999490;28;98603;-79
2023/07/19 10:37:51;;;;;;;7.05;2.53;;;;;;;;;;5011296;28;127613;-79
2023/07/19 10:40:18;;;;;;;7.75;2.95;;;;;;;;;;5008538;28;99510;-79
2023/07/19 10:42:44;;;;;;;5.70;2.53;;;;;;;;;;5008378;28;98533;-79
2023/07/19 10:45:11;;;;;;;10.93;2.90;;;;;;;;;;5006042;28;99225;-79
2023/07/19 10:47:37;;;;;;;4.32;2.17;;;;;;;;;;5000738;28;99602;-79
2023/07/19 10:50:05;;;;;;;4.97;2.45;;;;;;;;;;5013429;28;98538;-79
2023/07/19 10:52:32;;;;;;;23.45;3.85;;;;;;;;;;5009621;28;99503;-80
2023/07/19 10:54:58;;;;;;;21.63;3.80;;;;;;;;;;4995951;28;98583;-79
2023/07/19 10:57:46;;;;;;;19.38;4.05;;;;;;;;;;5007819;28;98829;-79
2023/07/19 11:00:13;;;;;;;6.60;2.50;;;;;;;;;;5001301;28;99540;-79
2023/07/19 11:02:43;;;;;;;7.93;2.63;;;;;;;;;;5010274;28;97794;-79
2023/07/19 11:05:09;;;;;;;7.45;2.90;;;;;;;;;;5002084;28;98540;-79
2023/07/19 11:07:36;;;;;;;11.23;2.70;;;;;;;;;;4989163;28;99589;-79
2023/07/19 11:10:03;;;;;;;10.20;2.63;;;;;;;;;;4988080;28;99782;-79
2023/07/19 11:12:31;;;;;;;14.18;2.80;;;;;;;;;;4994717;28;101355;-79
2023/07/19 11:14:58;;;;;;;9.18;3.05;;;;;;;;;;5006492;28;98832;-79
2023/07/19 11:17:26;;;;;;;5.20;2.50;;;;;;;;;;5000460;28;101145;-79
2023/07/19 11:19:53;;;;;;;11.30;2.47;;;;;;;;;;4996128;28;100239;-80
2023/07/19 11:22:23;;;;;;;12.13;3.03;;;;;;;;;;4987704;28;98659;-79
2023/07/19 11:24:53;;;;;;;;;;;;;;;;;;4990628;28;99170;-79
2023/07/19 11:27:32;;;;;;;6.05;1.77;;;;;;;;;;4998741;28;128235;-79
2023/07/19 11:29:58;;;;;;;10.55;2.08;;;;;;;;;;5009604;28;98665;-79
2023/07/19 11:32:24;;;;;;;7.95;2.78;;;;;;;;;;5013020;28;100559;-79
2023/07/19 11:34:55;;;;;;;8.45;2.50;;;;;;;;;;5007259;28;100670;-80
2023/07/19 11:37:21;;;;;;;;;;;;;;;;;;5006388;28;99920;-80
2023/07/19 11:39:48;;;;;;;8.52;2.28;;;;;;;;;;5013062;28;130256;-78
2023/07/19 11:42:15;;;;;;;7.25;1.98;;;;;;;;;;5012868;28;98543;-79
2023/07/19 11:44:43;;;;;;;6.55;1.98;;;;;;;;;;4998629;28;99211;-78
2023/07/19 11:47:10;;;;;;;6.97;2.10;;;;;;;;;;5002461;28;99391;-78
2023/07/19 11:49:36;;;;;;;13.57;2.60;;;;;;;;;;5012837;28;98761;-77
2023/07/19 11:52:03;;;;;;;4.97;1.70;;;;;;;;;;5011606;28;99854;-80
2023/07/19 11:54:30;;;;;;;7.65;1.95;;;;;;;;;;5012422;28;100514;-79
2023/07/19 11:56:56;;;;;;;5.80;1.95;;;;;;;;;;5008976;28;98647;-79
2023/07/19 11:59:23;;;;;;;7.32;1.88;;;;;;;;;;5011405;28;100457;-79
2023/07/19 12:01:50;;;;;;;8.13;2.10;;;;;;;;;;5012535;28;98631;-79
2023/07/19 12:04:17;;;;;;;8.20;1.88;;;;;;;;;;4996517;28;98997;-79
2023/07/19 12:06:43;;;;;;;5.40;1.92;;;;;;;;;;5004027;28;99760;-79
2023/07/19 12:09:13;;;;;;;4.85;2.00;;;;;;;;;;5012675;28;98845;-79
2023/07/19 12:11:41;;;;;;;4.80;1.73;;;;;;;;;;5012119;28;99493;-79
2023/07/19 12:14:07;;;;;;;8.55;1.52;;;;;;;;;;5010511;28;100684;-79
2023/07/19 12:16:34;;;;;;;4.00;1.52;;;;;;;;;;5015492;28;98276;-79
2023/07/19 12:19:00;;;;;;;7.97;1.77;;;;;;;;;;5010091;28;99902;-80
2023/07/19 12:21:27;;;;;;;4.53;1.42;;;;;;;;;;5012077;28;98535;-80
2023/07/19 12:23:53;;;;;;;6.85;1.80;;;;;;;;;;5011454;28;99682;-78
2023/07/19 12:26:25;;;;;;;6.25;1.92;;;;;;;;;;5011031;28;99407;-80
2023/07/19 12:28:54;;;;;;;9.95;1.80;;;;;;;;;;5011698;28;98714;-78
2023/07/19 12:31:21;;;;;;;5.45;1.60;;;;;;;;;;4997529;28;99419;-80
2023/07/19 12:33:49;;;;;;;7.78;2.10;;;;;;;;;;4991579;28;99547;-78
2023/07/19 12:36:16;;;;;;;6.13;1.65;;;;;;;;;;4996823;28;98691;-78
2023/07/19 12:38:42;;;;;;;4.85;1.73;;;;;;;;;;5002286;28;103045;-79
2023/07/19 12:41:08;;;;;;;6.32;1.70;;;;;;;;;;4993457;28;97867;-74
2023/07/19 12:43:36;;;;;;;6.63;1.70;;;;;;;;;;5005879;28;98536;-82
2023/07/19 12:46:03;;;;;;;8.68;1.55;;;;;;;;;;5009925;28;100453;-81
2023/07/19 12:48:29;;;;;;;6.38;1.83;;;;;;;;;;5003523;28;99326;-82
2023/07/19 12:50:56;;;;;;;5.03;1.73;;;;;;;;;;5012873;28;100873;-83
2023/07/19 12:53:22;;;;;;;4.15;1.65;;;;;;;;;;5006785;28;99475;-78
2023/07/19 12:55:49;;;;;;;6.85;1.63;;;;;;;;;;4991585;28;98981;-78
2023/07/19 12:58:15;;;;;;;10.10;1.58;;;;;;;;;;5000525;28;99236;-80
2023/07/19 13:00:42;;;;;;;10.05;1.60;;;;;;;;;;5004560;28;100527;-80
2023/07/19 13:03:09;;;;;;;7.10;1.15;;;;;;;;;;4991626;28;99165;-80
2023/07/19 13:05:36;;;;;;;2.78;1.27;;;;;;;;;;4991413;28;99232;-80
2023/07/19 13:08:05;;;;;;;9.57;1.98;;;;;;;;;;4993075;28;99253;-80
2023/07/19 13:10:32;;;;;;;5.38;1.52;;;;;;;;;;4991874;28;99432;-78
2023/07/19 13:13:00;;;;;;;10.48;1.58;;;;;;;;;;4989281;28;100813;-78
2023/07/19 13:15:26;;;;;;;4.05;1.00;;;;;;;;;;4993161;28;98660;-78
2023/07/19 13:17:53;;;;;;;6.97;1.40;;;;;;;;;;5000770;28;102016;-78
2023/07/19 13:20:20;;;;;;;4.90;1.40;;;;;;;;;;5011393;28;100863;-78
2023/07/19 13:22:47;;;;;;;7.40;1.10;;;;;;;;;;5015085;28;98499;-77
2023/07/19 13:25:14;;;;;;;7.03;1.75;;;;;;;;;;5006770;28;100555;-78
2023/07/19 13:27:42;;;;;;;2.97;1.58;;;;;;;;;;4994518;28;98514;-78
2023/07/19 13:30:08;;;;;;;3.53;1.48;;;;;;;;;;4998860;28;99367;-78
2023/07/19 13:32:36;;;;;;;4.95;1.38;;;;;;;;;;4992862;28;103495;-78
2023/07/19 13:35:03;;;;;;;1.48;0.90;;;;;;;;;;4992252;28;98572;-78
2023/07/19 13:37:29;;;;;;;3.05;1.17;;;;;;;;;;4991334;28;100790;-78
2023/07/19 13:39:59;;;;;;;3.70;1.33;;;;;;;;;;4990134;28;100209;-74
2023/07/19 13:42:26;;;;;;;2.63;1.08;;;;;;;;;;4994165;28;98567;-76
2023/07/19 13:44:53;;;;;;;2.50;1.00;;;;;;;;;;5010708;28;99274;-75
2023/07/19 13:47:19;;;;;;;2.17;1.23;;;;;;;;;;4995289;28;98544;-75
2023/07/19 13:49:46;;;;;;;5.22;1.45;;;;;;;;;;4992029;28;103952;-82
2023/07/19 13:52:12;;;;;;;1.20;0.88;;;;;;;;;;5009756;28;99513;-83
2023/07/19 13:54:45;;;;;;;1.95;1.10;;;;;;;;;;4997697;28;97845;-78
2023/07/19 13:57:12;;;;;;;4.38;1.42;;;;;;;;;;4993861;28;98511;-79
2023/07/19 13:59:44;;;;;;;3.60;1.15;;;;;;;;;;5009104;28;100692;-73
2023/07/19 14:02:11;;;;;;;3.72;1.23;;;;;;;;;;4995852;28;99349;-83
2023/07/19 14:04:38;;;;;;;2.40;1.02;;;;;;;;;;5002932;28;102689;-82
2023/07/19 14:07:04;;;;;;;4.70;1.40;;;;;;;;;;5013297;28;98529;-82
2023/07/19 14:09:31;;;;;;;3.80;1.10;;;;;;;;;;5011188;28;100242;-82
2023/07/19 14:11:57;;;;;;;6.88;1.45;;;;;;;;;;5010407;28;100594;-82
2023/07/19 14:14:24;;;;;;;3.10;1.38;;;;;;;;;;4999308;28;99235;-82
2023/07/19 14:16:51;;;;;;;3.88;1.58;;;;;;;;;;4993646;28;99185;-81
2023/07/19 14:19:18;;;;;;;3.50;1.27;;;;;;;;;;4995359;28;99201;-82
2023/07/19 14:21:45;;;;;;;3.55;1.08;;;;;;;;;;5009394;28;98551;-82
2023/07/19 14:24:11;;;;;;;2.80;1.13;;;;;;;;;;4997124;28;99164;-82
2023/07/19 14:26:37;;;;;;;1.25;1.10;;;;;;;;;;4996157;28;101290;-81
2023/07/19 14:29:04;;;;;;;2.53;1.33;;;;;;;;;;5007682;28;99939;-82
2023/07/19 14:31:31;;;;;;;14.13;1.98;;;;;;;;;;5008335;28;100839;-82
2023/07/19 14:33:57;;;;;;;11.57;1.60;;;;;;;;;;5007274;28;98520;-82
2023/07/19 14:36:24;;;;;;;10.05;1.25;;;;;;;;;;5005054;28;99110;-82
2023/07/19 14:38:51;;;;;;;2.80;1.17;;;;;;;;;;5001181;28;102379;-82